createdAt,value
2018-05-23T00:00:27.109Z,4.27
2018-05-23T00:02:53.608Z,4.70
2018-05-23T00:05:20.191Z,4.00
2018-05-23T00:07:46.598Z,4.17
2018-05-23T00:10:13.291Z,4.13
2018-05-23T00:12:40.452Z,4.30
2018-05-23T00:15:07.156Z,3.90
2018-05-23T00:17:33.624Z,3.97
2018-05-23T00:20:00.651Z,4.20
2018-05-23T00:22:27.291Z,3.80
2018-05-23T00:24:53.674Z,4.20
2018-05-23T00:27:20.604Z,4.03
2018-05-23T00:29:47.411Z,4.33
2018-05-23T00:32:14.148Z,4.50
2018-05-23T00:34:40.514Z,4.10
2018-05-23T00:37:06.879Z,3.83
2018-05-23T00:39:33.358Z,4.40
2018-05-23T00:41:59.962Z,4.30
2018-05-23T00:44:26.534Z,4.23
2018-05-23T00:46:52.903Z,4.60
2018-05-23T00:49:19.257Z,4.33
2018-05-23T00:51:45.883Z,4.30
2018-05-23T00:54:12.364Z,3.93
2018-05-23T00:56:38.735Z,4.37
2018-05-23T00:59:05.697Z,4.37
2018-05-23T01:01:32.318Z,4.20
2018-05-23T01:03:58.719Z,4.10
2018-05-23T01:06:25.160Z,4.40
2018-05-23T01:08:51.523Z,4.13
2018-05-23T01:11:17.953Z,3.77
2018-05-23T01:13:44.343Z,3.80
2018-05-23T01:16:10.816Z,4.23
2018-05-23T01:18:37.344Z,4.10
2018-05-23T01:21:03.704Z,4.00
2018-05-23T01:23:30.060Z,3.83
2018-05-23T01:25:56.402Z,3.37
2018-05-23T01:28:22.936Z,4.10
2018-05-23T01:30:49.481Z,4.20
2018-05-23T01:33:15.864Z,3.87
2018-05-23T01:35:42.206Z,4.17
2018-05-23T01:38:08.586Z,4.00
2018-05-23T01:40:35.060Z,4.13
2018-05-23T01:43:01.461Z,5.07
2018-05-23T01:45:27.847Z,4.30
2018-05-23T01:47:54.197Z,4.17
2018-05-23T01:50:20.618Z,3.97
2018-05-23T01:52:46.999Z,4.60
2018-05-23T01:55:13.459Z,4.10
2018-05-23T01:57:39.952Z,3.77
2018-05-23T02:00:06.409Z,4.17
2018-05-23T02:02:32.905Z,4.43
2018-05-23T02:04:59.339Z,3.50
2018-05-23T02:07:25.683Z,4.20
2018-05-23T02:09:52.295Z,3.70
2018-05-23T02:12:19.569Z,3.60
2018-05-23T02:14:45.945Z,3.40
2018-05-23T02:17:12.320Z,4.00
2018-05-23T02:19:38.644Z,4.10
2018-05-23T02:22:05.037Z,4.10
2018-05-23T02:24:31.544Z,3.80
2018-05-23T02:26:58.951Z,4.10
2018-05-23T02:29:25.398Z,4.10
2018-05-23T02:31:51.758Z,4.40
2018-05-23T02:34:18.153Z,4.20
2018-05-23T02:36:45.183Z,4.30
2018-05-23T02:41:43.988Z,4.43
2018-05-23T02:44:10.386Z,4.57
2018-05-23T02:46:37.129Z,4.27
2018-05-23T02:49:03.654Z,4.40
2018-05-23T02:51:29.987Z,4.10
2018-05-23T02:53:56.469Z,4.50
2018-05-23T02:56:22.792Z,4.00
2018-05-23T02:58:49.590Z,4.63
2018-05-23T03:01:16.014Z,4.70
2018-05-23T03:03:42.345Z,4.70
2018-05-23T03:06:08.665Z,4.70
2018-05-23T03:08:35.051Z,4.87
2018-05-23T03:11:01.531Z,4.90
2018-05-23T03:13:28.117Z,5.33
2018-05-23T03:15:54.509Z,4.90
2018-05-23T03:18:20.875Z,5.30
2018-05-23T03:20:47.339Z,5.07
2018-05-23T03:23:13.750Z,4.80
2018-05-23T03:25:40.483Z,5.00
2018-05-23T03:28:06.817Z,4.60
2018-05-23T03:30:33.226Z,4.40
2018-05-23T03:32:59.560Z,4.83
2018-05-23T03:35:26.027Z,4.50
2018-05-23T03:37:52.635Z,4.93
2018-05-23T03:40:19.040Z,5.00
2018-05-23T03:42:45.359Z,4.73
2018-05-23T03:45:11.716Z,4.60
2018-05-23T03:47:38.087Z,4.70
2018-05-23T03:50:04.528Z,4.60
2018-05-23T03:52:30.950Z,4.80
2018-05-23T03:54:57.280Z,4.10
2018-05-23T03:57:23.612Z,4.77
2018-05-23T03:59:49.981Z,4.63
2018-05-23T04:02:16.593Z,4.10
2018-05-23T04:04:43.079Z,4.80
2018-05-23T04:07:09.386Z,4.83
2018-05-23T04:09:35.727Z,4.37
2018-05-23T04:12:02.153Z,4.47
2018-05-23T04:14:28.516Z,5.10
2018-05-23T04:16:54.841Z,4.37
2018-05-23T04:19:21.221Z,4.10
2018-05-23T04:21:47.576Z,4.50
2018-05-23T04:24:14.000Z,4.73
2018-05-23T04:26:40.352Z,4.30
2018-05-23T04:29:06.732Z,4.40
2018-05-23T04:31:33.096Z,4.87
2018-05-23T04:33:59.461Z,4.60
2018-05-23T04:36:25.829Z,4.50
2018-05-23T04:38:52.227Z,5.37
2018-05-23T04:41:18.556Z,5.07
2018-05-23T04:43:44.901Z,4.83
2018-05-23T04:46:11.438Z,7.60
2018-05-23T04:48:37.959Z,6.37
2018-05-23T04:51:04.359Z,5.53
2018-05-23T04:53:30.944Z,6.73
2018-05-23T04:55:57.705Z,5.40
2018-05-23T04:58:24.043Z,5.50
2018-05-23T05:00:50.433Z,7.20
2018-05-23T05:03:17.033Z,6.40
2018-05-23T05:05:43.694Z,5.17
2018-05-23T05:08:10.450Z,5.63
2018-05-23T05:10:37.449Z,5.23
2018-05-23T05:13:04.163Z,5.63
2018-05-23T05:15:30.695Z,5.13
2018-05-23T05:17:57.226Z,5.60
2018-05-23T05:20:23.889Z,4.97
2018-05-23T05:22:50.273Z,5.03
2018-05-23T05:25:16.901Z,4.93
2018-05-23T05:27:43.491Z,6.13
2018-05-23T05:30:10.481Z,5.40
2018-05-23T05:32:37.327Z,5.20
2018-05-23T05:35:03.961Z,5.40
2018-05-23T05:37:30.551Z,4.93
2018-05-23T05:39:57.024Z,5.37
2018-05-23T05:42:23.379Z,4.80
2018-05-23T05:44:49.747Z,5.53
2018-05-23T05:47:16.147Z,4.33
2018-05-23T05:49:42.610Z,5.20
2018-05-23T05:52:09.075Z,4.63
2018-05-23T05:54:35.438Z,5.03
2018-05-23T05:57:02.010Z,4.93
2018-05-23T05:59:28.540Z,5.17
2018-05-23T06:01:55.271Z,4.70
2018-05-23T06:04:21.962Z,5.23
2018-05-23T06:06:48.490Z,5.43
2018-05-23T06:09:14.871Z,5.13
2018-05-23T06:11:41.224Z,5.13
2018-05-23T06:14:08.790Z,5.17
2018-05-23T06:16:35.627Z,5.50
2018-05-23T06:19:02.469Z,5.47
2018-05-23T06:21:28.974Z,5.97
2018-05-23T06:23:55.366Z,5.10
2018-05-23T06:26:22.134Z,5.60
2018-05-23T06:28:48.672Z,5.57
2018-05-23T06:31:15.150Z,5.57
2018-05-23T06:33:41.779Z,5.87
2018-05-23T06:36:08.329Z,6.03
2018-05-23T06:38:34.842Z,5.40
2018-05-23T06:41:01.428Z,5.90
2018-05-23T06:43:28.139Z,5.77
2018-05-23T06:45:54.728Z,6.87
2018-05-23T06:48:21.477Z,5.80
2018-05-23T06:50:48.989Z,6.00
2018-05-23T06:53:15.544Z,6.07
2018-05-23T06:55:42.115Z,5.93
2018-05-23T06:58:08.763Z,6.00
2018-05-23T07:00:35.228Z,5.43
2018-05-23T07:03:01.786Z,5.70
2018-05-23T07:05:28.537Z,7.73
2018-05-23T07:07:55.132Z,7.10
2018-05-23T07:10:21.578Z,5.97
2018-05-23T07:12:48.142Z,6.73
2018-05-23T07:15:14.791Z,7.37
2018-05-23T07:17:41.395Z,6.07
2018-05-23T07:20:07.828Z,5.50
2018-05-23T07:22:34.435Z,7.20
2018-05-23T07:25:01.380Z,7.43
2018-05-23T07:27:28.026Z,5.97
2018-05-23T07:29:54.593Z,6.03
2018-05-23T07:32:21.313Z,5.80
2018-05-23T07:34:47.971Z,6.27
2018-05-23T07:37:14.438Z,5.50
2018-05-23T07:39:41.154Z,6.03
2018-05-23T07:42:07.929Z,6.50
2018-05-23T07:44:34.515Z,5.20
2018-05-23T07:47:01.167Z,7.47
2018-05-23T07:49:27.739Z,5.60
2018-05-23T07:51:54.222Z,6.50
2018-05-23T07:54:20.829Z,5.70
2018-05-23T07:56:47.455Z,6.10
2018-05-23T07:59:14.228Z,5.73
2018-05-23T08:01:41.179Z,6.43
2018-05-23T08:04:08.168Z,5.67
2018-05-23T08:06:34.957Z,6.13
2018-05-23T08:09:02.484Z,5.90
2018-05-23T08:11:29.004Z,6.07
2018-05-23T08:13:55.468Z,6.00
2018-05-23T08:16:21.831Z,8.37
2018-05-23T08:18:48.645Z,5.80
2018-05-23T08:21:15.428Z,5.97
2018-05-23T08:23:41.891Z,5.47
2018-05-23T08:26:08.406Z,6.43
2018-05-23T08:28:34.984Z,6.60
2018-05-23T08:31:02.692Z,6.00
2018-05-23T08:33:29.550Z,6.30
2018-05-23T08:35:57.142Z,5.53
2018-05-23T08:38:23.958Z,5.13
2018-05-23T08:43:29.571Z,7.20
2018-05-23T08:45:56.635Z,5.63
2018-05-23T08:48:23.369Z,5.57
2018-05-23T08:50:50.403Z,5.87
2018-05-23T08:53:17.069Z,5.40
2018-05-23T08:55:43.536Z,5.10
2018-05-23T08:58:10.064Z,6.23
2018-05-23T09:00:37.891Z,5.70
2018-05-23T09:03:04.638Z,5.37
2018-05-23T09:05:31.195Z,5.03
2018-05-23T09:07:57.687Z,5.03
2018-05-23T09:10:24.213Z,4.97
2018-05-23T09:12:50.628Z,4.93
2018-05-23T09:15:17.061Z,5.93
2018-05-23T09:17:43.607Z,5.30
2018-05-23T09:20:10.076Z,5.40
2018-05-23T09:22:36.716Z,5.00
2018-05-23T09:25:03.394Z,4.90
2018-05-23T09:27:29.811Z,4.83
2018-05-23T09:29:57.320Z,5.70
2018-05-23T09:32:23.886Z,4.70
2018-05-23T09:34:50.613Z,4.70
2018-05-23T09:37:17.199Z,4.90
2018-05-23T09:39:43.748Z,4.97
2018-05-23T09:42:10.150Z,4.97
2018-05-23T09:44:37.691Z,4.40
2018-05-23T09:47:06.049Z,4.57
2018-05-23T09:49:33.016Z,6.13
2018-05-23T09:51:59.675Z,4.83
2018-05-23T09:54:26.542Z,4.40
2018-05-23T09:56:53.085Z,4.00
2018-05-23T09:59:19.647Z,4.70
2018-05-23T10:01:46.648Z,5.07
2018-05-23T10:04:13.490Z,5.07
2018-05-23T10:06:39.863Z,5.00
2018-05-23T10:09:06.342Z,4.40
2018-05-23T10:11:32.812Z,4.33
2018-05-23T10:13:59.363Z,5.17
2018-05-23T10:16:25.971Z,5.50
2018-05-23T10:18:53.223Z,5.70
2018-05-23T10:21:19.915Z,5.40
2018-05-23T10:23:47.764Z,5.90
2018-05-23T10:26:14.339Z,5.30
2018-05-23T10:28:40.933Z,5.10
2018-05-23T10:31:07.449Z,5.30
2018-05-23T10:33:34.069Z,11.90
2018-05-23T10:36:00.760Z,5.40
2018-05-23T10:38:27.203Z,4.70
2018-05-23T10:40:54.109Z,5.43
2018-05-23T10:43:20.947Z,4.53
2018-05-23T10:45:50.373Z,5.60
2018-05-23T10:48:16.753Z,4.63
2018-05-23T10:50:44.318Z,4.50
2018-05-23T10:53:11.098Z,4.77
2018-05-23T10:55:37.821Z,4.50
2018-05-23T10:58:04.457Z,5.10
2018-05-23T11:00:30.840Z,4.83
2018-05-23T11:02:57.420Z,5.43
2018-05-23T11:05:23.797Z,7.60
2018-05-23T11:07:50.212Z,6.00
2018-05-23T11:10:16.674Z,4.20
2018-05-23T11:12:43.072Z,5.97
2018-05-23T11:15:09.400Z,5.37
2018-05-23T11:17:35.910Z,5.03
2018-05-23T11:20:02.349Z,4.67
2018-05-23T11:22:29.020Z,5.10
2018-05-23T11:24:56.211Z,4.90
2018-05-23T11:27:22.997Z,4.47
2018-05-23T11:29:50.000Z,4.50
2018-05-23T11:32:16.480Z,4.80
2018-05-23T11:34:43.065Z,4.40
2018-05-23T11:37:09.772Z,5.10
2018-05-23T11:39:36.227Z,5.07
2018-05-23T11:42:02.750Z,3.90
2018-05-23T11:44:29.386Z,3.80
2018-05-23T11:46:56.236Z,3.70
2018-05-23T11:49:22.787Z,3.87
2018-05-23T11:51:49.375Z,4.13
2018-05-23T11:54:15.764Z,4.10
2018-05-23T11:56:42.320Z,4.60
2018-05-23T11:59:08.826Z,4.93
2018-05-23T12:01:35.205Z,4.33
2018-05-23T12:04:02.460Z,5.20
2018-05-23T12:06:28.832Z,5.30
2018-05-23T12:08:55.375Z,4.40
2018-05-23T12:11:21.791Z,4.77
2018-05-23T12:13:48.141Z,5.60
2018-05-23T12:16:14.503Z,5.27
2018-05-23T12:18:41.009Z,4.90
2018-05-23T12:21:07.451Z,5.80
2018-05-23T12:23:33.958Z,4.93
2018-05-23T12:26:00.368Z,4.87
2018-05-23T12:28:26.792Z,4.27
2018-05-23T12:30:53.163Z,4.87
2018-05-23T12:33:19.650Z,4.73
2018-05-23T12:35:46.025Z,6.03
2018-05-23T12:38:12.402Z,4.90
2018-05-23T12:40:38.802Z,5.17
2018-05-23T12:43:05.298Z,4.60
2018-05-23T12:45:31.682Z,4.70
2018-05-23T12:47:59.335Z,4.50
2018-05-23T12:50:26.181Z,4.97
2018-05-23T12:52:52.552Z,4.67
2018-05-23T12:55:19.051Z,4.77
2018-05-23T12:57:45.419Z,4.93
2018-05-23T13:00:11.873Z,4.83
2018-05-23T13:02:38.235Z,4.40
2018-05-23T13:05:04.685Z,4.50
2018-05-23T13:07:31.209Z,5.20
2018-05-23T13:09:57.565Z,5.27
2018-05-23T13:12:24.097Z,5.03
2018-05-23T13:14:50.405Z,5.10
2018-05-23T13:17:16.783Z,4.77
2018-05-23T13:19:43.290Z,4.70
2018-05-23T13:22:09.686Z,4.80
2018-05-23T13:24:36.196Z,4.93
2018-05-23T13:27:02.659Z,4.83
2018-05-23T13:29:29.119Z,4.73
2018-05-23T13:31:55.502Z,4.93
2018-05-23T13:34:21.857Z,5.40
2018-05-23T13:36:48.213Z,5.30
2018-05-23T13:39:14.566Z,6.30
2018-05-23T13:41:41.063Z,5.50
2018-05-23T13:44:07.503Z,5.60
2018-05-23T13:46:33.890Z,5.30
2018-05-23T13:49:00.248Z,4.50
2018-05-23T13:51:26.608Z,6.43
2018-05-23T13:53:52.937Z,5.57
2018-05-23T13:56:19.441Z,5.70
2018-05-23T13:58:45.825Z,5.10
2018-05-23T14:01:12.166Z,6.10
2018-05-23T14:03:38.612Z,5.63
2018-05-23T14:06:06.082Z,5.53
2018-05-23T14:08:32.579Z,6.00
2018-05-23T14:10:58.948Z,5.60
2018-05-23T14:13:25.340Z,5.40
2018-05-23T14:15:51.684Z,5.53
2018-05-23T14:18:18.008Z,5.70
2018-05-23T14:20:44.400Z,4.90
2018-05-23T14:23:10.925Z,5.17
2018-05-23T14:25:37.248Z,5.70
2018-05-23T14:28:03.702Z,4.60
2018-05-23T14:30:30.070Z,5.77
2018-05-23T14:32:56.630Z,4.97
2018-05-23T14:35:22.964Z,5.70
2018-05-23T14:37:49.329Z,6.13
2018-05-23T14:40:15.692Z,6.13
2018-05-23T14:42:42.038Z,4.97
2018-05-23T14:45:08.577Z,4.70
2018-05-23T14:47:34.945Z,4.97
2018-05-23T14:50:01.388Z,4.37
2018-05-23T14:52:27.702Z,5.03
2018-05-23T14:54:54.130Z,5.43
2018-05-23T14:57:20.501Z,4.70
2018-05-23T14:59:46.942Z,5.00
2018-05-23T15:02:13.410Z,4.47
2018-05-23T15:04:39.930Z,5.17
2018-05-23T15:07:06.307Z,4.70
2018-05-23T15:09:32.896Z,5.20
2018-05-23T15:11:59.479Z,4.90
2018-05-23T15:14:25.867Z,4.63
2018-05-23T15:16:52.204Z,5.50
2018-05-23T15:19:18.541Z,4.60
2018-05-23T15:21:45.568Z,4.80
2018-05-23T15:24:11.917Z,4.40
2018-05-23T15:26:38.322Z,5.60
2018-05-23T15:29:05.318Z,4.60
2018-05-23T15:31:32.269Z,4.57
2018-05-23T15:33:58.912Z,4.33
2018-05-23T15:36:25.256Z,4.27
2018-05-23T15:38:51.645Z,4.83
2018-05-23T15:41:18.029Z,4.80
2018-05-23T15:43:44.361Z,4.13
2018-05-23T15:46:10.733Z,4.03
2018-05-23T15:48:37.242Z,3.77
2018-05-23T15:51:03.625Z,4.00
2018-05-23T15:53:30.038Z,4.30
2018-05-23T15:55:56.388Z,4.67
2018-05-23T15:58:22.734Z,4.43
2018-05-23T16:00:49.076Z,4.23
2018-05-23T16:03:15.436Z,3.70
2018-05-23T16:05:41.884Z,4.07
2018-05-23T16:08:08.316Z,4.00
2018-05-23T16:10:34.677Z,4.50
2018-05-23T16:13:01.097Z,3.80
2018-05-23T16:15:31.487Z,3.70
2018-05-23T16:17:58.206Z,3.73
2018-05-23T16:20:24.616Z,3.40
2018-05-23T16:22:50.954Z,3.80
2018-05-23T16:25:17.309Z,3.70
2018-05-23T16:27:43.706Z,4.80
2018-05-23T16:30:10.198Z,3.97
2018-05-23T16:32:36.597Z,3.33
2018-05-23T16:35:03.221Z,3.60
2018-05-23T16:37:29.605Z,4.07
2018-05-23T16:40:03.692Z,3.77
2018-05-23T16:42:30.085Z,3.30
2018-05-23T16:44:56.419Z,3.60
2018-05-23T16:47:31.357Z,3.77
2018-05-23T16:49:57.797Z,3.27
2018-05-23T16:52:24.150Z,3.37
2018-05-23T16:54:50.615Z,3.70
2018-05-23T16:57:17.091Z,3.30
2018-05-23T17:09:57.244Z,3.43
2018-05-23T17:12:23.615Z,3.70
2018-05-23T17:14:50.006Z,3.60
2018-05-23T17:17:17.935Z,3.37
2018-05-23T17:35:27.976Z,3.80
2018-05-23T17:37:54.293Z,4.33
2018-05-23T17:56:03.981Z,3.70
2018-05-23T17:58:30.426Z,3.60
2018-05-23T18:16:41.402Z,3.60
2018-05-23T18:37:31.227Z,3.63
2018-05-23T18:52:49.157Z,3.90
2018-05-23T18:57:46.902Z,3.70
2018-05-23T19:18:35.008Z,3.53
2018-05-23T19:21:01.336Z,3.30
2018-05-23T19:23:27.652Z,3.63
2018-05-23T19:25:53.974Z,3.40
2018-05-23T19:28:20.434Z,3.77
2018-05-23T19:30:47.050Z,3.47
2018-05-23T19:33:13.502Z,3.80
2018-05-23T19:35:39.982Z,3.50
2018-05-23T19:38:06.388Z,3.40
2018-05-23T19:40:33.052Z,3.70
2018-05-23T19:42:59.436Z,3.60
2018-05-23T19:45:25.895Z,3.30
2018-05-23T19:47:52.212Z,2.93
2018-05-23T19:50:18.660Z,3.60
2018-05-23T19:52:45.212Z,3.87
2018-05-23T19:55:11.487Z,3.63
2018-05-23T19:57:37.829Z,3.67
2018-05-23T20:00:04.262Z,3.53
2018-05-23T20:02:30.809Z,3.70
2018-05-23T20:04:57.187Z,3.43
2018-05-23T20:07:23.540Z,3.30
2018-05-23T20:09:49.905Z,3.53
2018-05-23T20:12:16.305Z,3.50
2018-05-23T20:14:42.616Z,3.60
2018-05-23T20:17:08.981Z,3.87
2018-05-23T20:19:35.314Z,3.57
2018-05-23T20:22:01.689Z,3.37
2018-05-23T20:24:28.018Z,3.37
2018-05-23T20:26:54.327Z,3.50
2018-05-23T20:32:00.208Z,3.77
2018-05-23T20:34:26.590Z,3.77
2018-05-23T20:36:52.919Z,3.33
2018-05-23T20:39:19.239Z,3.77
2018-05-23T20:41:45.558Z,3.53
2018-05-23T20:44:11.892Z,3.33
2018-05-23T20:46:38.223Z,3.23
2018-05-23T20:49:04.548Z,3.60
2018-05-23T20:51:30.885Z,3.50
2018-05-23T20:53:57.240Z,3.73
2018-05-23T20:56:23.613Z,3.27
2018-05-23T20:58:50.014Z,3.70
2018-05-23T21:01:16.371Z,3.20
2018-05-23T21:03:42.708Z,3.50
2018-05-23T21:06:09.083Z,3.40
2018-05-23T21:08:35.449Z,3.37
2018-05-23T21:11:01.826Z,3.50
2018-05-23T21:13:28.152Z,3.53
2018-05-23T21:15:54.468Z,3.43
2018-05-23T21:18:21.033Z,3.20
2018-05-23T21:20:48.524Z,3.07
2018-05-23T21:23:15.091Z,3.30
2018-05-23T21:28:13.904Z,3.30
2018-05-23T21:30:48.044Z,3.03
2018-05-23T21:33:14.582Z,3.50
2018-05-23T21:35:40.945Z,3.47
2018-05-23T21:38:07.408Z,3.23
2018-05-23T21:40:34.847Z,3.70
2018-05-23T21:43:01.295Z,3.37
2018-05-23T21:45:27.619Z,3.60
2018-05-23T21:47:53.948Z,3.80
2018-05-23T21:50:22.050Z,3.20
2018-05-23T21:52:48.383Z,3.60
2018-05-23T21:55:14.702Z,3.10
2018-05-23T21:57:41.020Z,3.47
2018-05-23T22:00:07.347Z,3.27
2018-05-23T22:02:33.856Z,3.50
2018-05-23T22:05:01.023Z,2.80
2018-05-23T22:07:27.375Z,3.23
2018-05-23T22:10:01.357Z,3.00
2018-05-23T22:12:27.735Z,3.87
2018-05-23T22:14:54.053Z,3.07
2018-05-23T22:17:20.643Z,3.40
2018-05-23T22:19:47.209Z,3.20
2018-05-23T22:22:13.561Z,3.47
2018-05-23T22:24:39.978Z,3.27
2018-05-23T22:27:06.331Z,3.50
2018-05-23T22:29:32.690Z,3.20
2018-05-23T22:31:59.009Z,2.80
2018-05-23T22:34:25.408Z,3.50
2018-05-23T22:36:51.752Z,2.73
2018-05-23T22:39:27.035Z,3.30
2018-05-23T22:41:53.383Z,3.30
2018-05-23T22:44:19.801Z,3.47
2018-05-23T22:46:46.129Z,3.10
2018-05-23T22:49:12.595Z,3.13
2018-05-23T22:51:38.932Z,3.03
2018-05-23T22:54:05.312Z,3.03
2018-05-23T22:56:31.639Z,2.80
2018-05-23T22:58:58.277Z,3.40
2018-05-23T23:01:24.598Z,3.33
2018-05-23T23:03:51.007Z,3.20
2018-05-23T23:06:17.619Z,3.13
2018-05-23T23:08:44.020Z,3.03
2018-05-23T23:11:10.344Z,3.40
2018-05-23T23:13:36.664Z,3.07
2018-05-23T23:16:02.993Z,3.10
2018-05-23T23:18:29.450Z,3.30
2018-05-23T23:20:55.811Z,2.93
2018-05-23T23:23:22.200Z,3.10
2018-05-23T23:25:48.726Z,3.50
2018-05-23T23:28:15.368Z,3.00
2018-05-23T23:30:49.715Z,3.03
2018-05-23T23:33:16.133Z,3.00
2018-05-23T23:35:42.569Z,3.00
2018-05-23T23:38:08.941Z,3.40
2018-05-23T23:40:35.356Z,3.00
2018-05-23T23:43:01.755Z,2.90
2018-05-23T23:45:28.233Z,3.23
2018-05-23T23:47:54.562Z,3.33
2018-05-23T23:50:20.879Z,3.70
2018-05-23T23:52:47.268Z,3.27
2018-05-23T23:55:13.756Z,3.40
2018-05-23T23:57:40.219Z,3.40
